Time;durP1;ratioP1;P1;durP2;ratioP2;P2;SDS_P1;SDS_P2;PMS_P1;PMS_P2;Temp;Humidity;BMP_temperature;BMP_pressure;BME280_temperature;BME280_humidity;BME280_pressure;Samples;Min_cycle;Max_cycle;Signal;HPM_P1;HPM_P2
2023/05/01 00:00:08;;;;;;;;;;;;;;;12.69;92.90;100005.66;5090506;28;20038;-55
2023/05/01 00:02:34;;;;;;;;;;;;;;;12.67;92.95;99998.63;5091310;28;19930;-55
2023/05/01 00:04:59;;;;;;;;;;;;;;;12.65;92.97;99990.69;5090790;28;20375;-55
2023/05/01 00:07:28;;;;;;;;;;;;;;;12.63;93.48;99989.91;5091666;28;19947;-55
2023/05/01 00:09:53;;;;;;;;;;;;;;;12.56;93.51;99985.75;5091371;28;20364;-55
2023/05/01 00:12:18;;;;;;;;;;;;;;;12.54;94.07;99982.28;5091136;28;19916;-55
2023/05/01 00:14:44;;;;;;;;;;;;;;;12.52;93.78;99986.78;5089984;28;20334;-55
2023/05/01 00:17:09;;;;;;;;;;;;;;;12.57;93.96;99982.13;5093566;28;19920;-55
2023/05/01 00:19:34;;;;;;;;;;;;;;;12.59;93.97;99974.94;5090460;28;19927;-55
2023/05/01 00:21:59;;;;;;;;;;;;;;;12.59;93.99;99969.63;5091024;28;19938;-55
2023/05/01 00:24:25;;;;;;;;;;;;;;;12.58;93.61;99969.69;5090840;28;19939;-55
2023/05/01 00:26:50;;;;;;;;;;;;;;;12.54;93.95;99968.06;5089165;28;19942;-55
2023/05/01 00:29:16;;;;;;;;;;;;;;;12.53;93.95;99969.88;5090285;28;19993;-55
2023/05/01 00:31:41;;;;;;;;;;;;;;;12.51;93.88;99958.41;5089134;28;19920;-55
2023/05/01 00:34:06;;;;;;;;;;;;;;;12.49;94.05;99960.25;5090249;28;20382;-55
2023/05/01 00:36:32;;;;;;;;;;;;;;;12.47;94.62;99953.25;5090129;28;20364;-55
2023/05/01 00:38:57;;;;;;;;;;;;;;;12.43;94.72;99952.50;5089709;28;19919;-55
2023/05/01 00:41:22;;;;;;;;;;;;;;;12.42;95.36;99956.09;5089957;28;19927;-55
2023/05/01 00:43:47;;;;;;;;;;;;;;;12.40;95.74;99951.75;5090714;28;20114;-55
2023/05/01 00:46:13;;;;;;;;;;;;;;;12.41;95.92;99950.81;5089810;28;19920;-55
2023/05/01 00:48:38;;;;;;;;;;;;;;;12.40;95.42;99946.44;5090482;28;20030;-55
2023/05/01 00:51:04;;;;;;;;;;;;;;;12.37;95.95;99950.06;5090444;28;19923;-55
2023/05/01 00:53:30;;;;;;;;;;;;;;;12.30;96.34;99945.94;5090579;28;20314;-55
2023/05/01 00:55:56;;;;;;;;;;;;;;;12.33;96.41;99943.13;5089887;28;19919;-55
2023/05/01 00:58:21;;;;;;;;;;;;;;;12.34;96.37;99946.69;5090224;28;20326;-55
2023/05/01 01:00:48;;;;;;;;;;;;;;;12.32;96.76;99935.22;5090518;28;19916;-55
2023/05/01 01:03:13;;;;;;;;;;;;;;;12.31;97.02;99934.31;5088793;28;19920;-55
2023/05/01 01:05:40;;;;;;;;;;;;;;;12.34;97.53;99930.69;5089667;28;19928;-55
2023/05/01 01:08:08;;;;;;;;;;;;;;;12.34;97.37;99931.53;5089465;28;19920;-55
2023/05/01 01:10:34;;;;;;;;;;;;;;;12.34;97.48;99928.88;5090710;28;19918;-55
2023/05/01 01:12:59;;;;;;;;;;;;;;;12.36;98.21;99920.78;5089952;28;19920;-55
2023/05/01 01:15:27;;;;;;;;;;;;;;;12.37;98.00;99915.41;5090090;28;19916;-55
2023/05/01 01:17:58;;;;;;;;;;;;;;;12.35;98.24;99911.94;5090609;28;19974;-55
2023/05/01 01:20:23;;;;;;;;;;;;;;;12.32;98.46;99909.38;5092898;28;19920;-55
2023/05/01 01:22:52;;;;;;;;;;;;;;;12.30;97.91;99908.59;5088598;28;20249;-55
2023/05/01 01:25:20;;;;;;;;;;;;;;;12.25;97.46;99902.59;5089890;28;19927;-55
2023/05/01 01:28:04;;;;;;;;;;;;;;;12.22;98.70;99902.72;5089704;28;19916;-55
2023/05/01 01:30:35;;;;;;;;;;;;;;;12.32;98.24;99895.19;5070491;28;19923;-55
2023/05/01 01:33:03;;;;;;;;;;;;;;;12.31;98.19;99899.66;5088671;28;19965;-55
2023/05/01 01:35:30;;;;;;;;;;;;;;;12.31;97.67;99894.31;5088491;28;20380;-55
2023/05/01 01:38:00;;;;;;;;;;;;;;;12.36;97.54;99897.66;5089434;28;19924;-55
2023/05/01 01:40:30;;;;;;;;;;;;;;;12.38;97.97;99906.47;5089780;28;19914;-55
2023/05/01 01:43:01;;;;;;;;;;;;;;;12.40;98.09;99899.28;5089909;28;19993;-55
2023/05/01 01:45:32;;;;;;;;;;;;;;;12.47;97.31;99895.41;5088582;28;20338;-55
2023/05/01 01:47:58;;;;;;;;;;;;;;;12.48;97.32;99905.16;5089935;28;20510;-55
2023/05/01 01:50:25;;;;;;;;;;;;;;;12.47;97.04;99900.75;5088837;28;19920;-55
2023/05/01 01:52:51;;;;;;;;;;;;;;;12.43;96.86;99900.94;5088712;28;19963;-55
2023/05/01 01:55:19;;;;;;;;;;;;;;;12.38;97.24;99895.81;5090491;28;19916;-55
2023/05/01 01:57:45;;;;;;;;;;;;;;;12.34;96.80;99894.19;5088848;28;19997;-55
2023/05/01 02:00:12;;;;;;;;;;;;;;;12.31;97.45;99905.00;5089542;28;20387;-55
2023/05/01 02:02:38;;;;;;;;;;;;;;;12.30;97.27;99897.94;5089525;28;19931;-55
2023/05/01 02:05:07;;;;;;;;;;;;;;;12.26;97.99;99893.66;5089245;28;20358;-55
2023/05/01 02:07:34;;;;;;;;;;;;;;;12.29;98.48;99895.34;5088442;28;20554;-55
2023/05/01 02:10:01;;;;;;;;;;;;;;;12.29;98.25;99890.00;5089602;28;19916;-55
2023/05/01 02:12:26;;;;;;;;;;;;;;;12.28;98.25;99889.13;5093865;28;20307;-55
2023/05/01 02:14:52;;;;;;;;;;;;;;;12.24;98.36;99884.00;5112030;28;19915;-55
2023/05/01 02:17:19;;;;;;;;;;;;;;;12.21;98.80;99887.63;5098445;28;20390;-55
2023/05/01 02:19:45;;;;;;;;;;;;;;;12.20;98.31;99885.91;5092819;28;19912;-55
2023/05/01 02:22:11;;;;;;;;;;;;;;;12.18;98.21;99884.22;5092501;28;19927;-55
2023/05/01 02:24:38;;;;;;;;;;;;;;;12.12;98.59;99888.03;5093346;28;19912;-55
2023/05/01 02:27:07;;;;;;;;;;;;;;;12.14;99.45;99891.47;5093016;28;19931;-55
2023/05/01 02:29:33;;;;;;;;;;;;;;;12.12;99.66;99892.47;5090683;28;19981;-55
2023/05/01 02:31:58;;;;;;;;;;;;;;;12.10;99.09;99887.22;5092097;28;19923;-55
2023/05/01 02:34:24;;;;;;;;;;;;;;;12.11;99.44;99880.94;5091740;28;19912;-55
2023/05/01 02:36:50;;;;;;;;;;;;;;;12.12;99.90;99874.69;5092216;28;19916;-55
2023/05/01 02:39:15;;;;;;;;;;;;;;;12.13;99.47;99875.53;5091457;28;19923;-55
2023/05/01 02:41:41;;;;;;;;;;;;;;;12.13;100.00;99870.22;5093114;28;19942;-55
2023/05/01 02:44:08;;;;;;;;;;;;;;;12.11;99.46;99869.44;5092517;28;19912;-55
2023/05/01 02:46:35;;;;;;;;;;;;;;;12.12;99.70;99869.34;5074300;28;19920;-55
2023/05/01 02:49:02;;;;;;;;;;;;;;;12.11;100.00;99864.94;5074663;28;19919;-55
2023/05/01 02:51:28;;;;;;;;;;;;;;;12.09;100.00;99858.84;5092271;28;20075;-55
2023/05/01 02:53:54;;;;;;;;;;;;;;;12.09;100.00;99866.81;5092770;28;19935;-55
2023/05/01 02:56:19;;;;;;;;;;;;;;;12.08;100.00;99865.06;5081451;28;19947;-55
2023/05/01 02:58:46;;;;;;;;;;;;;;;12.09;100.00;99861.50;5072371;28;19923;-55
2023/05/01 03:01:11;;;;;;;;;;;;;;;12.09;100.00;99857.94;5086903;28;19996;-55
2023/05/01 03:03:37;;;;;;;;;;;;;;;12.11;100.00;99848.94;5092485;28;19947;-55
2023/05/01 03:06:02;;;;;;;;;;;;;;;12.08;100.00;99858.88;5091488;28;20677;-55
2023/05/01 03:08:27;;;;;;;;;;;;;;;12.07;100.00;99854.47;5084089;28;20662;-55
2023/05/01 03:10:53;;;;;;;;;;;;;;;12.05;100.00;99857.22;5072214;28;19970;-55
2023/05/01 03:13:18;;;;;;;;;;;;;;;12.06;100.00;99856.25;5072059;28;20399;-55
2023/05/01 03:15:44;;;;;;;;;;;;;;;12.04;100.00;99858.16;5082438;28;20073;-55
2023/05/01 03:18:09;;;;;;;;;;;;;;;12.04;100.00;99858.16;5092387;28;19927;-55
2023/05/01 03:20:34;;;;;;;;;;;;;;;12.05;100.00;99851.88;5091161;28;19938;-55
2023/05/01 03:23:00;;;;;;;;;;;;;;;12.01;100.00;99855.59;5103509;28;20371;-55
2023/05/01 03:25:25;;;;;;;;;;;;;;;12.02;100.00;99857.34;5111298;28;19919;-55
2023/05/01 03:27:50;;;;;;;;;;;;;;;12.00;100.00;99855.66;5112478;28;20298;-55
2023/05/01 03:30:16;;;;;;;;;;;;;;;11.99;100.00;99849.47;5103629;28;19927;-55
2023/05/01 03:32:41;;;;;;;;;;;;;;;11.99;100.00;99854.81;5091997;28;19912;-55
2023/05/01 03:35:07;;;;;;;;;;;;;;;11.97;100.00;99862.00;5092290;28;19960;-55
2023/05/01 03:37:33;;;;;;;;;;;;;;;11.94;100.00;99852.31;5091129;28;19916;-56
2023/05/01 03:39:58;;;;;;;;;;;;;;;11.92;100.00;99847.97;5092086;28;20023;-55
2023/05/01 03:42:23;;;;;;;;;;;;;;;11.93;100.00;99845.25;5090876;28;19919;-55
2023/05/01 03:44:49;;;;;;;;;;;;;;;11.93;100.00;99845.25;5091144;28;19990;-55
2023/05/01 03:47:15;;;;;;;;;;;;;;;11.96;100.00;99848.72;5092112;28;19973;-55
2023/05/01 03:49:42;;;;;;;;;;;;;;;11.96;100.00;99846.91;5091656;28;19923;-55
2023/05/01 03:52:07;;;;;;;;;;;;;;;11.94;100.00;99851.47;5090957;28;19959;-55
2023/05/01 03:54:33;;;;;;;;;;;;;;;11.97;100.00;99850.44;5091754;28;20696;-55
2023/05/01 03:56:59;;;;;;;;;;;;;;;11.98;100.00;99853.03;5090467;28;19923;-55
2023/05/01 03:59:24;;;;;;;;;;;;;;;11.98;100.00;99847.72;5091706;28;19969;-55
2023/05/01 04:01:50;;;;;;;;;;;;;;;11.97;100.00;99847.78;5094266;28;20332;-56
2023/05/01 04:04:15;;;;;;;;;;;;;;;11.97;100.00;99843.31;5091575;28;19912;-55
2023/05/01 04:06:40;;;;;;;;;;;;;;;11.99;99.84;99843.25;5090373;28;19931;-55
2023/05/01 04:09:07;;;;;;;;;;;;;;;11.97;100.00;99848.66;5091594;28;19916;-55
2023/05/01 04:11:32;;;;;;;;;;;;;;;11.96;99.84;99852.22;5089853;28;19919;-55
2023/05/01 04:13:57;;;;;;;;;;;;;;;11.98;100.00;99862.88;5093704;28;19986;-55
2023/05/01 04:16:23;;;;;;;;;;;;;;;12.01;100.00;99857.41;5090642;28;19923;-55
2023/05/01 04:18:51;;;;;;;;;;;;;;;12.04;100.00;99860.81;5089211;28;19924;-55
2023/05/01 04:21:17;;;;;;;;;;;;;;;12.09;100.00;99858.84;5089377;28;20057;-55
2023/05/01 04:23:43;;;;;;;;;;;;;;;12.15;99.58;99861.22;5087223;28;20769;-55
2023/05/01 04:26:08;;;;;;;;;;;;;;;12.21;99.62;99860.97;5088723;28;19920;-55
2023/05/01 04:28:33;;;;;;;;;;;;;;;12.26;99.61;99858.97;5089790;28;19978;-55
2023/05/01 04:30:58;;;;;;;;;;;;;;;12.32;99.09;99864.03;5088930;28;19920;-55
2023/05/01 04:33:24;;;;;;;;;;;;;;;12.34;99.07;99862.19;5091090;28;20019;-54
2023/05/01 04:35:49;;;;;;;;;;;;;;;12.39;98.46;99860.19;5090149;28;19920;-55
2023/05/01 04:38:15;;;;;;;;;;;;;;;12.46;98.53;99863.47;5090329;28;19912;-54
2023/05/01 04:40:40;;;;;;;;;;;;;;;12.52;97.73;99865.91;5090251;28;20451;-55
2023/05/01 04:43:05;;;;;;;;;;;;;;;12.57;97.90;99869.22;5088619;28;19943;-55
2023/05/01 04:45:30;;;;;;;;;;;;;;;12.61;97.73;99871.69;5089787;28;19920;-54
2023/05/01 04:47:56;;;;;;;;;;;;;;;12.64;97.71;99871.56;5089153;28;19923;-54
2023/05/01 04:50:21;;;;;;;;;;;;;;;12.70;97.51;99871.28;5089781;28;20352;-54
2023/05/01 04:52:46;;;;;;;;;;;;;;;12.72;97.63;99872.09;5089318;28;20018;-55
2023/05/01 04:55:12;;;;;;;;;;;;;;;12.74;97.70;99878.22;5070535;28;19920;-54
2023/05/01 04:57:37;;;;;;;;;;;;;;;12.78;97.42;99873.63;5090302;28;19919;-55
2023/05/01 05:00:02;;;;;;;;;;;;;;;12.90;96.35;99876.63;5089357;28;20450;-54
2023/05/01 05:02:28;;;;;;;;;;;;;;;12.84;96.74;99879.56;5090226;28;19928;-55
2023/05/01 05:04:53;;;;;;;;;;;;;;;12.87;96.86;99882.09;5090207;28;19916;-55
2023/05/01 05:07:19;;;;;;;;;;;;;;;12.98;95.87;99885.16;5090186;28;20300;-55
2023/05/01 05:09:45;;;;;;;;;;;;;;;12.88;95.78;99889.16;5088903;28;20276;-55
2023/05/01 05:12:10;;;;;;;;;;;;;;;12.88;95.92;99881.16;5078115;28;19923;-55
2023/05/01 05:14:35;;;;;;;;;;;;;;;12.91;95.85;99886.38;5073485;28;19999;-55
2023/05/01 05:17:00;;;;;;;;;;;;;;;12.98;95.88;99887.81;5071806;28;19912;-55
2023/05/01 05:19:26;;;;;;;;;;;;;;;13.10;94.48;99890.00;5089839;28;19912;-55
2023/05/01 05:21:51;;;;;;;;;;;;;;;13.15;93.72;99896.00;5089559;28;20003;-55
2023/05/01 05:24:16;;;;;;;;;;;;;;;13.20;93.52;99899.31;5090393;28;19916;-55
2023/05/01 05:26:41;;;;;;;;;;;;;;;13.21;93.16;99898.38;5088975;28;19920;-55
2023/05/01 05:29:07;;;;;;;;;;;;;;;13.28;92.59;99892.78;5091557;28;19927;-55
2023/05/01 05:31:32;;;;;;;;;;;;;;;13.41;92.63;99891.28;5092646;28;19912;-55
2023/05/01 05:33:57;;;;;;;;;;;;;;;13.48;92.03;99898.06;5090026;28;19948;-55
2023/05/01 05:36:23;;;;;;;;;;;;;;;13.48;91.49;99893.59;5089935;28;19912;-55
2023/05/01 05:38:49;;;;;;;;;;;;;;;13.49;91.46;99895.34;5089017;28;20151;-55
2023/05/01 05:41:14;;;;;;;;;;;;;;;13.53;91.51;99898.72;5089850;28;19916;-55
2023/05/01 05:43:40;;;;;;;;;;;;;;;13.60;90.22;99908.19;5089976;28;20431;-55
2023/05/01 05:46:05;;;;;;;;;;;;;;;13.59;89.11;99901.13;5089659;28;20395;-55
2023/05/01 05:48:31;;;;;;;;;;;;;;;13.59;89.12;99906.47;5089104;28;19965;-55
2023/05/01 05:50:56;;;;;;;;;;;;;;;13.55;88.65;99907.53;5093659;28;20391;-55
2023/05/01 05:53:21;;;;;;;;;;;;;;;13.56;88.31;99903.94;5093047;28;19923;-56
2023/05/01 05:55:47;;;;;;;;;;;;;;;13.61;88.99;99909.91;5093814;28;20405;-55
2023/05/01 05:58:18;;;;;;;;;;;;;;;13.71;88.92;99897.84;5092998;28;19938;-55
2023/05/01 06:00:48;;;;;;;;;;;;;;;13.82;89.11;99898.22;5093347;28;20280;-55
2023/05/01 06:03:13;;;;;;;;;;;;;;;13.93;88.22;99909.28;5093160;28;19920;-55
2023/05/01 06:05:39;;;;;;;;;;;;;;;13.98;87.42;99905.44;5104768;28;19969;-55
2023/05/01 06:08:04;;;;;;;;;;;;;;;14.04;87.62;99905.13;5106676;28;19916;-55
2023/05/01 06:10:30;;;;;;;;;;;;;;;14.07;87.31;99904.09;5092905;28;19926;-55
2023/05/01 06:12:55;;;;;;;;;;;;;;;14.11;87.18;99908.38;5092898;28;19923;-55
2023/05/01 06:15:20;;;;;;;;;;;;;;;14.12;87.27;99902.09;5089721;28;19999;-55
2023/05/01 06:17:45;;;;;;;;;;;;;;;14.05;87.15;99904.19;5081349;28;20719;-55
2023/05/01 06:20:12;;;;;;;;;;;;;;;14.06;87.34;99908.63;5093647;28;19922;-55
2023/05/01 06:22:38;;;;;;;;;;;;;;;14.01;86.09;99904.41;5093526;28;19916;-55
2023/05/01 06:25:05;;;;;;;;;;;;;;;14.09;86.60;99904.91;5095685;28;20417;-55
2023/05/01 06:27:30;;;;;;;;;;;;;;;14.09;86.87;99904.91;5092527;28;19912;-55
2023/05/01 06:29:55;;;;;;;;;;;;;;;14.16;86.13;99906.34;5093707;28;19927;-55
2023/05/01 06:32:22;;;;;;;;;;;;;;;14.24;85.95;99907.72;5074634;28;19912;-55
2023/05/01 06:34:47;;;;;;;;;;;;;;;14.31;86.94;99911.88;5092363;28;19946;-55
2023/05/01 06:37:12;;;;;;;;;;;;;;;14.33;85.87;99911.78;5091897;28;20375;-55
2023/05/01 06:39:38;;;;;;;;;;;;;;;14.34;84.77;99910.84;5092961;28;20391;-55
2023/05/01 06:42:03;;;;;;;;;;;;;;;14.39;85.00;99916.81;5093037;28;19939;-56
2023/05/01 06:44:29;;;;;;;;;;;;;;;14.42;84.10;99922.91;5093014;28;20113;-54
2023/05/01 06:46:55;;;;;;;;;;;;;;;14.59;83.76;99919.38;5085710;28;19927;-55
2023/05/01 06:49:21;;;;;;;;;;;;;;;14.62;83.06;99931.72;5092855;28;19991;-54
2023/05/01 06:51:46;;;;;;;;;;;;;;;14.64;82.26;99936.06;5092160;28;20015;-55
2023/05/01 06:54:11;;;;;;;;;;;;;;;14.74;82.30;99929.31;5092761;28;19919;-54
2023/05/01 06:56:36;;;;;;;;;;;;;;;14.89;82.91;99941.91;5092856;28;19973;-54
2023/05/01 06:59:02;;;;;;;;;;;;;;;14.87;82.68;99935.78;5091445;28;19965;-55
2023/05/01 07:01:28;;;;;;;;;;;;;;;15.02;82.87;99934.13;5092370;28;19931;-55
2023/05/01 07:03:53;;;;;;;;;;;;;;;15.17;81.54;99936.00;5091814;28;19919;-55
2023/05/01 07:06:18;;;;;;;;;;;;;;;15.23;80.59;99944.59;5092791;28;20376;-55
2023/05/01 07:08:44;;;;;;;;;;;;;;;15.31;78.90;99942.34;5092510;28;19912;-54
2023/05/01 07:11:09;;;;;;;;;;;;;;;15.44;78.85;99942.59;5092501;28;19927;-55
2023/05/01 07:13:34;;;;;;;;;;;;;;;15.30;77.49;99951.34;5091505;28;20026;-55
2023/05/01 07:16:01;;;;;;;;;;;;;;;15.37;76.62;99936.66;5092351;28;19912;-55
2023/05/01 07:18:26;;;;;;;;;;;;;;;15.41;76.82;99942.75;5092334;28;20299;-55
2023/05/01 07:20:51;;;;;;;;;;;;;;;15.29;77.41;99946.94;5091927;28;19912;-55
2023/05/01 07:23:17;;;;;;;;;;;;;;;15.33;76.98;99948.50;5090815;28;20018;-55
2023/05/01 07:25:44;;;;;;;;;;;;;;;15.42;77.44;99941.84;5092324;28;20019;-55
2023/05/01 07:28:09;;;;;;;;;;;;;;;15.41;77.05;99937.41;5091197;28;20011;-55
2023/05/01 07:30:35;;;;;;;;;;;;;;;15.47;77.33;99935.25;5092682;28;20003;-55
2023/05/01 07:33:00;;;;;;;;;;;;;;;15.56;77.91;99928.53;5091993;28;20449;-55
2023/05/01 07:35:26;;;;;;;;;;;;;;;15.65;78.72;99936.06;5093029;28;19924;-55
2023/05/01 07:37:51;;;;;;;;;;;;;;;15.59;77.99;99936.41;5091677;28;19912;-55
2023/05/01 07:40:17;;;;;;;;;;;;;;;15.72;79.57;99934.78;5091091;28;20006;-55
2023/05/01 07:42:42;;;;;;;;;;;;;;;15.77;79.01;99936.28;5072197;28;19919;-55
2023/05/01 07:45:08;;;;;;;;;;;;;;;15.70;78.25;99940.25;5090119;28;19951;-55
2023/05/01 07:47:33;;;;;;;;;;;;;;;15.61;78.66;99946.13;5090055;28;19923;-55
2023/05/01 07:49:59;;;;;;;;;;;;;;;15.56;79.48;99937.47;5091470;28;20007;-55
2023/05/01 07:52:25;;;;;;;;;;;;;;;15.56;79.69;99933.91;5090943;28;19923;-55
2023/05/01 07:54:50;;;;;;;;;;;;;;;15.53;80.28;99921.50;5091631;28;19915;-55
2023/05/01 07:57:15;;;;;;;;;;;;;;;15.48;79.59;99926.28;5090486;28;19939;-55
2023/05/01 07:59:40;;;;;;;;;;;;;;;15.51;80.79;99928.78;5091476;28;20253;-55
2023/05/01 08:02:06;;;;;;;;;;;;;;;15.52;82.21;99926.97;5089290;28;19924;-55
2023/05/01 08:04:31;;;;;;;;;;;;;;;15.62;82.55;99925.50;5093813;28;20428;-55
2023/05/01 08:06:56;;;;;;;;;;;;;;;15.73;82.54;99929.34;5090242;28;19923;-55
2023/05/01 08:09:22;;;;;;;;;;;;;;;15.56;82.45;99932.09;5091174;28;20442;-55
2023/05/01 08:11:47;;;;;;;;;;;;;;;15.58;84.28;99930.19;5090514;28;19912;-55
2023/05/01 08:14:12;;;;;;;;;;;;;;;15.79;83.67;99922.78;5090203;28;19962;-55
2023/05/01 08:16:37;;;;;;;;;;;;;;;15.81;84.35;99927.09;5091017;28;20299;-55
2023/05/01 08:19:03;;;;;;;;;;;;;;;15.63;83.07;99917.38;5090118;28;20006;-55
2023/05/01 08:21:28;;;;;;;;;;;;;;;15.56;84.62;99928.53;5093738;28;19944;-55
2023/05/01 08:23:54;;;;;;;;;;;;;;;15.51;84.54;99925.25;5090971;28;19916;-55
2023/05/01 08:26:20;;;;;;;;;;;;;;;15.55;84.62;99924.97;5090389;28;19920;-55
2023/05/01 08:28:45;;;;;;;;;;;;;;;15.71;84.14;99936.63;5090978;28;20712;-55
2023/05/01 08:31:10;;;;;;;;;;;;;;;15.78;84.44;99929.97;5089816;28;20375;-55
2023/05/01 08:33:36;;;;;;;;;;;;;;;15.85;84.83;99932.31;5072490;28;20048;-55
2023/05/01 08:36:01;;;;;;;;;;;;;;;15.75;84.18;99938.19;5090681;28;20389;-55
2023/05/01 08:38:26;;;;;;;;;;;;;;;15.77;85.26;99932.72;5090533;28;19927;-55
2023/05/01 08:40:52;;;;;;;;;;;;;;;15.72;85.20;99927.63;5087997;28;20391;-55
2023/05/01 08:43:18;;;;;;;;;;;;;;;15.77;85.36;99938.09;5090519;28;20338;-55
2023/05/01 08:45:45;;;;;;;;;;;;;;;15.94;84.85;99935.34;5088677;28;19920;-55
2023/05/01 08:48:11;;;;;;;;;;;;;;;16.39;85.10;99922.00;5072869;28;19927;-55
2023/05/01 08:50:37;;;;;;;;;;;;;;;16.80;85.09;99933.91;5070211;28;19919;-55
2023/05/01 08:53:03;;;;;;;;;;;;;;;17.17;83.43;99929.00;5085386;28;19955;-55
2023/05/01 08:55:29;;;;;;;;;;;;;;;17.49;81.42;99925.25;5090643;28;19963;-55
2023/05/01 08:57:56;;;;;;;;;;;;;;;17.60;77.90;99929.00;5089726;28;19912;-55
2023/05/01 09:00:23;;;;;;;;;;;;;;;17.70;76.62;99930.16;5090173;28;20372;-55
2023/05/01 09:02:49;;;;;;;;;;;;;;;17.88;76.32;99929.00;5090187;28;19924;-55
2023/05/01 09:05:15;;;;;;;;;;;;;;;18.09;75.71;99927.63;5089368;28;19923;-55
2023/05/01 09:07:41;;;;;;;;;;;;;;;18.42;73.84;99929.13;5090195;28;20420;-55
2023/05/01 09:10:06;;;;;;;;;;;;;;;19.24;71.30;99927.97;5090127;28;19923;-55
2023/05/01 09:12:34;;;;;;;;;;;;;;;20.20;67.46;99918.31;5089100;28;19916;-55
2023/05/01 09:15:00;;;;;;;;;;;;;;;21.32;65.21;99920.56;5087146;28;20256;-55
2023/05/01 09:17:26;;;;;;;;;;;;;;;21.60;61.99;99920.09;5087987;28;19923;-55
2023/05/01 09:19:52;;;;;;;;;;;;;;;22.22;57.60;99926.81;5087602;28;19912;-55
2023/05/01 09:22:17;;;;;;;;;;;;;;;22.13;56.46;99931.13;5089092;28;20470;-55
2023/05/01 09:24:43;;;;;;;;;;;;;;;21.82;56.88;99931.00;5088283;28;20367;-55
2023/05/01 09:27:12;;;;;;;;;;;;;;;21.96;56.92;99933.44;5087712;28;20486;-55
2023/05/01 09:29:44;;;;;;;;;;;;;;;22.53;56.49;99942.31;5090709;28;19912;-55
2023/05/01 09:32:16;;;;;;;;;;;;;;;22.69;53.09;99929.19;5084937;28;20052;-55
2023/05/01 09:34:45;;;;;;;;;;;;;;;22.63;53.85;99934.25;5078663;28;19938;-55
2023/05/01 09:37:28;;;;;;;;;;;;;;;22.55;55.26;99931.34;5088464;28;20065;-55
2023/05/01 09:40:05;;;;;;;;;;;;;;;22.74;56.78;99932.38;5091290;28;19920;-55
2023/05/01 09:42:31;;;;;;;;;;;;;;;23.60;53.02;99926.78;5084398;28;19920;-55
2023/05/01 09:44:57;;;;;;;;;;;;;;;24.16;52.01;99923.53;5083961;28;19923;-55
2023/05/01 09:47:23;;;;;;;;;;;;;;;24.07;49.92;99912.63;5088986;28;20448;-55
2023/05/01 09:49:48;;;;;;;;;;;;;;;24.04;51.81;99916.44;5088096;28;19920;-55
2023/05/01 09:52:14;;;;;;;;;;;;;;;23.61;50.75;99907.63;5088777;28;20363;-55
2023/05/01 09:54:39;;;;;;;;;;;;;;;23.74;53.42;99912.88;5088556;28;20669;-55
2023/05/01 09:57:05;;;;;;;;;;;;;;;23.94;53.34;99903.78;5088645;28;19916;-55
2023/05/01 09:59:33;;;;;;;;;;;;;;;23.46;52.80;99897.25;5087573;28;20446;-55
2023/05/01 10:01:58;;;;;;;;;;;;;;;23.60;54.02;99891.47;5089650;28;19920;-55
2023/05/01 10:04:33;;;;;;;;;;;;;;;23.98;55.02;99894.41;5089129;28;20387;-55
2023/05/01 10:07:13;;;;;;;;;;;;;;;24.54;52.13;99895.56;5088644;28;20420;-55
2023/05/01 10:09:40;;;;;;;;;;;;;;;24.34;52.75;99899.22;5088288;28;19962;-55
2023/05/01 10:12:05;;;;;;;;;;;;;;;24.31;50.95;99894.09;5088744;28;19916;-55
2023/05/01 10:14:32;;;;;;;;;;;;;;;24.17;54.20;99897.19;5095369;28;19923;-55
2023/05/01 10:16:58;;;;;;;;;;;;;;;24.28;51.11;99895.19;5109152;28;19912;-55
2023/05/01 10:19:23;;;;;;;;;;;;;;;23.91;51.48;99894.06;5088577;28;19916;-55
2023/05/01 10:21:49;;;;;;;;;;;;;;;23.73;52.99;99898.41;5089542;28;19958;-55
2023/05/01 10:24:15;;;;;;;;;;;;;;;24.30;51.46;99905.97;5089959;28;19912;-55
2023/05/01 10:26:41;;;;;;;;;;;;;;;24.46;54.55;99900.84;5088276;28;20000;-55
2023/05/01 10:29:07;;;;;;;;;;;;;;;25.21;50.99;99898.31;5089484;28;19959;-55
2023/05/01 10:31:32;;;;;;;;;;;;;;;25.23;49.08;99902.63;5089540;28;19970;-55
2023/05/01 10:34:00;;;;;;;;;;;;;;;24.92;48.72;99895.63;5088745;28;19920;-55
2023/05/01 10:36:31;;;;;;;;;;;;;;;24.92;48.84;99900.19;5092445;28;19935;-55
2023/05/01 10:38:56;;;;;;;;;;;;;;;24.59;48.15;99899.59;5093112;28;19916;-55
2023/05/01 10:41:40;;;;;;;;;;;;;;;25.00;48.38;99897.63;5091783;28;20292;-55
2023/05/01 10:44:22;;;;;;;;;;;;;;;25.27;46.47;99895.88;5090601;28;20418;-55
2023/05/01 10:46:47;;;;;;;;;;;;;;;25.92;45.23;99895.88;5092069;28;19927;-55
2023/05/01 10:49:12;;;;;;;;;;;;;;;26.36;45.23;99893.41;5092165;28;19920;-55
2023/05/01 10:51:57;;;;;;;;;;;;;;;26.55;42.87;99896.84;5090626;28;19935;-55
2023/05/01 10:54:23;;;;;;;;;;;;;;;26.39;41.77;99887.63;5092002;28;19999;-55
2023/05/01 10:56:48;;;;;;;;;;;;;;;25.64;42.51;99879.63;5092356;28;20014;-55
2023/05/01 10:59:14;;;;;;;;;;;;;;;25.48;43.20;99874.81;5092835;28;19920;-55
2023/05/01 11:01:40;;;;;;;;;;;;;;;26.02;44.55;99873.19;5091238;28;19928;-55
2023/05/01 11:04:23;;;;;;;;;;;;;;;25.98;43.09;99871.75;5092436;28;20288;-55
2023/05/01 11:07:04;;;;;;;;;;;;;;;26.64;42.43;99865.91;5092455;28;19923;-55
2023/05/01 11:09:45;;;;;;;;;;;;;;;26.84;42.09;99872.97;5092066;28;19943;-55
2023/05/01 11:12:12;;;;;;;;;;;;;;;27.06;43.35;99861.56;5072152;28;19971;-55
2023/05/01 11:14:52;;;;;;;;;;;;;;;26.68;41.89;99871.94;5072166;28;19916;-55
2023/05/01 11:17:35;;;;;;;;;;;;;;;26.02;43.13;99870.44;5091671;28;19916;-55
2023/05/01 11:20:01;;;;;;;;;;;;;;;25.85;44.79;99862.03;5090509;28;19944;-55
2023/05/01 11:22:26;;;;;;;;;;;;;;;26.07;44.15;99865.41;5073060;28;19966;-54
2023/05/01 11:24:52;;;;;;;;;;;;;;;26.29;42.19;99859.56;5090461;28;20299;-55
2023/05/01 11:27:17;;;;;;;;;;;;;;;26.94;42.41;99848.31;5091668;28;20425;-55
2023/05/01 11:29:44;;;;;;;;;;;;;;;27.44;42.81;99846.69;5090672;28;19916;-55
2023/05/01 11:32:14;;;;;;;;;;;;;;;27.79;40.85;99843.78;5093742;28;19920;-55
2023/05/01 11:34:39;;;;;;;;;;;;;;;27.63;40.51;99843.72;5083722;28;19916;-55
2023/05/01 11:37:04;;;;;;;;;;;;;;;26.97;39.20;99847.97;5094287;28;19920;-55
2023/05/01 11:39:30;;;;;;;;;;;;;;;27.73;40.17;99830.78;5090861;28;19927;-55
2023/05/01 11:42:05;;;;;;;;;;;;;;;27.86;39.43;99842.13;5091789;28;20015;-55
2023/05/01 11:44:30;;;;;;;;;;;;;;;27.11;40.39;99836.50;5091697;28;19923;-55
2023/05/01 11:47:00;;;;;;;;;;;;;;;26.54;41.22;99842.44;5090183;28;19920;-55
2023/05/01 11:49:26;;;;;;;;;;;;;;;26.08;41.35;99842.59;5091059;28;20401;-55
2023/05/01 11:51:58;;;;;;;;;;;;;;;25.46;44.65;99838.69;5091619;28;20625;-55
2023/05/01 11:54:23;;;;;;;;;;;;;;;24.92;46.22;99838.47;5091669;28;20419;-55
2023/05/01 11:56:56;;;;;;;;;;;;;;;24.79;46.53;99832.47;5091767;28;19923;-54
2023/05/01 11:59:22;;;;;;;;;;;;;;;24.48;47.43;99834.41;5090944;28;20291;-55
2023/05/01 12:01:48;;;;;;;;;;;;;;;23.98;49.00;99842.78;5091590;28;19921;-55
2023/05/01 12:04:22;;;;;;;;;;;;;;;23.55;50.32;99839.41;5070395;28;20386;-55
2023/05/01 12:06:47;;;;;;;;;;;;;;;23.31;52.12;99837.03;5071140;28;19928;-55
2023/05/01 12:09:23;;;;;;;;;;;;;;;22.90;51.12;99840.56;5071248;28;19916;-55
2023/05/01 12:11:50;;;;;;;;;;;;;;;22.60;52.85;99845.88;5068118;28;19920;-55
2023/05/01 12:14:15;;;;;;;;;;;;;;;22.56;53.15;99854.41;5070202;28;19963;-55
2023/05/01 12:16:41;;;;;;;;;;;;;;;22.53;53.80;99852.84;5070060;28;19986;-55
2023/05/01 12:19:07;;;;;;;;;;;;;;;22.10;53.81;99860.06;5070174;28;19967;-55
2023/05/01 12:21:32;;;;;;;;;;;;;;;;;;5071688;28;19919;-55
2023/05/01 12:24:10;;;;;;;;;;;;;;;21.66;54.96;99850.09;5055827;28;19928;-54
2023/05/01 12:26:36;;;;;;;;;;;;;;;21.52;56.11;99846.78;5068696;28;19959;-55
2023/05/01 12:29:06;;;;;;;;;;;;;;;21.26;58.31;99856.09;5069415;28;20021;-55
2023/05/01 12:31:32;;;;;;;;;;;;;;;20.95;60.55;99863.03;5068197;28;19959;-54
2023/05/01 12:34:03;;;;;;;;;;;;;;;20.77;63.07;99859.88;5069331;28;20439;-54
2023/05/01 12:36:30;;;;;;;;;;;;;;;20.50;64.41;99859.28;5070588;28;19951;-54
2023/05/01 12:38:59;;;;;;;;;;;;;;;20.09;62.95;99860.63;5069752;28;20069;-54
2023/05/01 12:41:55;;;;;;;;;;;;;;;19.71;64.14;99862.56;5050606;28;19913;-54